Time;durP1;ratioP1;P1;durP2;ratioP2;P2;SDS_P1;SDS_P2;PMS_P1;PMS_P2;Temp;Humidity;BMP_temperature;BMP_pressure;BME280_temperature;BME280_humidity;BME280_pressure;Samples;Min_cycle;Max_cycle;Signal;HPM_P1;HPM_P2
2022/09/10 00:01:05;;;;;;;;;;;;;;;24.76;nan;101244.28;5052958;28;1527;-45
2022/09/10 00:03:31;;;;;;;;;;;;;;;24.71;nan;101246.47;5052816;28;1965;-41
2022/09/10 00:06:01;;;;;;;;;;;;;;;24.60;nan;101242.84;5052475;28;1272;-43
2022/09/10 00:08:29;;;;;;;;;;;;;;;24.66;nan;101250.41;5052956;28;765;-41
2022/09/10 00:10:56;;;;;;;;;;;;;;;24.55;nan;101250.34;5052359;28;1325;-43
2022/09/10 00:13:23;;;;;;;;;;;;;;;24.55;nan;101250.34;5052143;28;1099;-42
2022/09/10 00:15:50;;;;;;;;;;;;;;;24.40;nan;101250.53;5052865;28;1212;-40
2022/09/10 00:18:18;;;;;;;;;;;;;;;24.35;nan;101252.66;5052818;28;949;-41
2022/09/10 00:20:47;;;;;;;;;;;;;;;24.40;nan;101247.84;5052753;28;1295;-41
2022/09/10 00:23:15;;;;;;;;;;;;;;;24.32;nan;101250.19;5052992;28;1977;-41
2022/09/10 00:25:42;;;;;;;;;;;;;;;24.31;nan;101253.84;5052490;28;1291;-49
2022/09/10 00:28:08;;;;;;;;;;;;;;;24.41;nan;101254.84;5052429;28;855;-42
2022/09/10 00:30:39;;;;;;;;;;;;;;;24.28;nan;101253.22;5052417;28;1298;-46
2022/09/10 00:33:06;;;;;;;;;;;;;;;24.31;nan;101253.84;5052558;28;740;-44
2022/09/10 00:35:33;;;;;;;;;;;;;;;24.19;nan;101253.88;5052560;28;1220;-41
2022/09/10 00:38:00;;;;;;;;;;;;;;;24.20;nan;101242.25;5052385;28;832;-44
2022/09/10 00:40:27;;;;;;;;;;;;;;;24.28;nan;101239.91;5052753;28;1303;-43
2022/09/10 00:42:54;;;;;;;;;;;;;;;24.21;nan;101239.50;5052644;28;1922;-42
2022/09/10 00:45:31;;;;;;;;;;;;;;;24.19;nan;101235.25;5083919;28;1205;-44
2022/09/10 00:48:13;;;;;;;;;;;;;;;24.22;nan;101241.19;5052474;28;1697;-41
2022/09/10 00:50:41;;;;;;;;;;;;;;;24.27;nan;101241.72;5052446;28;1288;-41
2022/09/10 00:53:10;;;;;;;;;;;;;;;24.39;nan;101240.81;5052333;28;802;-44
2022/09/10 00:55:38;;;;;;;;;;;;;;;24.34;nan;101237.66;5052352;28;1216;-42
2022/09/10 00:58:07;;;;;;;;;;;;;;;24.34;nan;101237.66;5052484;28;874;-44
2022/09/10 01:00:34;;;;;;;;;;;;;;;24.29;nan;101231.78;5052196;28;1194;-43
2022/09/10 01:03:02;;;;;;;;;;;;;;;24.37;nan;101224.13;5052672;28;1905;-42
2022/09/10 01:05:28;;;;;;;;;;;;;;;24.39;nan;101226.66;5051305;28;1209;-42
2022/09/10 01:07:56;;;;;;;;;;;;;;;24.38;nan;101225.78;5052411;28;854;-41
2022/09/10 01:10:27;;;;;;;;;;;;;;;24.37;nan;101220.59;5052316;28;1216;-44
2022/09/10 01:13:06;;;;;;;;;;;;;;;24.40;nan;101223.03;5052379;28;672;-43
2022/09/10 01:15:52;;;;;;;;;;;;;;;24.36;nan;101214.41;5052026;28;1194;-43
2022/09/10 01:18:30;;;;;;;;;;;;;;;24.38;nan;101211.63;5052152;28;621;-40
2022/09/10 01:21:16;;;;;;;;;;;;;;;24.46;nan;101210.13;5052425;28;1188;-42
2022/09/10 01:23:58;;;;;;;;;;;;;;;24.35;nan;101209.19;5052179;28;1899;-43
2022/09/10 01:26:27;;;;;;;;;;;;;;;24.29;nan;101207.84;5055750;28;1027;-43
2022/09/10 01:28:59;;;;;;;;;;;;;;;24.28;nan;101214.13;5055552;28;739;-43
2022/09/10 01:31:30;;;;;;;;;;;;;;;24.11;nan;101214.50;5055467;28;988;-41
2022/09/10 01:34:29;;;;;;;;;;;;;;;24.18;nan;101215.75;5055514;28;648;-44
2022/09/10 01:36:59;;;;;;;;;;;;;;;24.21;nan;101215.53;5064894;28;1104;-42
2022/09/10 01:39:26;;;;;;;;;;;;;;;24.14;nan;101224.06;5055233;28;1256;-42
2022/09/10 01:41:53;;;;;;;;;;;;;;;24.26;nan;101223.16;5055100;28;1286;-41
2022/09/10 01:44:38;;;;;;;;;;;;;;;24.22;nan;101225.22;5086857;28;1906;-41
2022/09/10 01:47:16;;;;;;;;;;;;;;;24.17;nan;101219.38;5049448;28;1580;-43
2022/09/10 01:49:49;;;;;;;;;;;;;;;24.15;nan;101215.97;5055181;28;1141;-43
2022/09/10 01:52:48;;;;;;;;;;;;;;;24.14;nan;101219.59;5052624;28;1084;-43
2022/09/10 01:55:28;;;;;;;;;;;;;;;24.08;nan;101221.81;5053810;28;1158;-42
2022/09/10 01:58:03;;;;;;;;;;;;;;;24.04;nan;101223.88;5055272;28;981;-44
2022/09/10 02:00:32;;;;;;;;;;;;;;;24.15;nan;101220.44;5046426;28;1399;-37
2022/09/10 02:02:58;;;;;;;;;;;;;;;24.12;nan;101220.66;5055233;28;1899;-37
2022/09/10 02:05:27;;;;;;;;;;;;;;;24.07;nan;101223.66;5055024;28;1285;-44
2022/09/10 02:08:02;;;;;;;;;;;;;;;24.18;nan;101220.22;5055051;28;841;-45
2022/09/10 02:10:29;;;;;;;;;;;;;;;24.12;nan;101221.53;5054802;28;1289;-41
2022/09/10 02:12:56;;;;;;;;;;;;;;;24.14;nan;101224.06;5054850;28;972;-41
2022/09/10 02:15:25;;;;;;;;;;;;;;;24.11;nan;101224.28;5054820;28;1219;-40
2022/09/10 02:17:52;;;;;;;;;;;;;;;24.10;nan;101219.91;5054773;28;934;-43
2022/09/10 02:20:20;;;;;;;;;;;;;;;24.11;nan;101213.63;5054350;28;1201;-41
2022/09/10 02:22:50;;;;;;;;;;;;;;;24.14;nan;101213.41;5054366;28;1955;-45
2022/09/10 02:25:17;;;;;;;;;;;;;;;24.12;nan;101207.38;5054589;28;1412;-41
2022/09/10 02:27:44;;;;;;;;;;;;;;;24.11;nan;101211.84;5054745;28;1252;-43
2022/09/10 02:30:11;;;;;;;;;;;;;;;24.08;nan;101204.03;5054329;28;1312;-42
2022/09/10 02:32:37;;;;;;;;;;;;;;;24.15;nan;101212.47;5054750;28;1101;-41
2022/09/10 02:35:05;;;;;;;;;;;;;;;24.22;nan;101214.59;5054256;28;1248;-41
2022/09/10 02:37:31;;;;;;;;;;;;;;;24.16;nan;101212.38;5054582;28;1164;-41
2022/09/10 02:39:58;;;;;;;;;;;;;;;24.19;nan;101209.47;5054456;28;1209;-41
2022/09/10 02:42:25;;;;;;;;;;;;;;;24.15;nan;101200.00;5053572;28;1269;-41
2022/09/10 02:44:52;;;;;;;;;;;;;;;24.16;nan;101207.03;5054422;28;1927;-41
2022/09/10 02:47:19;;;;;;;;;;;;;;;24.12;nan;101199.38;5054045;28;1460;-41
2022/09/10 02:49:46;;;;;;;;;;;;;;;24.15;nan;101196.50;5054310;28;1186;-41
2022/09/10 02:52:13;;;;;;;;;;;;;;;24.19;nan;101195.31;5086116;28;901;-40
2022/09/10 02:54:39;;;;;;;;;;;;;;;24.20;nan;101189.88;5053624;28;1185;-45
2022/09/10 02:57:06;;;;;;;;;;;;;;;24.21;nan;101182.75;5054224;28;1130;-40
2022/09/10 02:59:33;;;;;;;;;;;;;;;24.11;nan;101190.53;5053836;28;1212;-40
2022/09/10 03:02:00;;;;;;;;;;;;;;;24.06;nan;101190.00;5054248;28;1207;-43
2022/09/10 03:04:26;;;;;;;;;;;;;;;24.08;nan;101195.19;5053860;28;1906;-46
2022/09/10 03:06:54;;;;;;;;;;;;;;;24.02;nan;101187.66;5053936;28;930;-42
2022/09/10 03:09:21;;;;;;;;;;;;;;;24.07;nan;101183.72;5053501;28;1146;-44
2022/09/10 03:11:49;;;;;;;;;;;;;;;24.11;nan;101185.22;5053276;28;1085;-42
2022/09/10 03:14:19;;;;;;;;;;;;;;;24.07;nan;101189.03;5053876;28;1308;-42
2022/09/10 03:16:46;;;;;;;;;;;;;;;24.01;nan;101191.28;5054102;28;1134;-44
2022/09/10 03:19:13;;;;;;;;;;;;;;;24.02;nan;101183.19;5053765;28;1220;-42
2022/09/10 03:21:40;;;;;;;;;;;;;;;24.05;nan;101185.63;5053669;28;1038;-40
2022/09/10 03:24:07;;;;;;;;;;;;;;;23.94;nan;101193.53;5053113;28;1906;-41
2022/09/10 03:26:34;;;;;;;;;;;;;;;23.83;nan;101196.13;5053624;28;1025;-45
2022/09/10 03:29:01;;;;;;;;;;;;;;;23.78;nan;101198.25;5053251;28;1208;-42
2022/09/10 03:31:27;;;;;;;;;;;;;;;23.73;nan;101192.41;5053629;28;1596;-42
2022/09/10 03:33:54;;;;;;;;;;;;;;;23.82;nan;101197.09;5053525;28;895;-41
2022/09/10 03:36:21;;;;;;;;;;;;;;;23.83;nan;101198.78;5052398;28;1295;-42
2022/09/10 03:38:48;;;;;;;;;;;;;;;23.82;nan;101184.63;5053316;28;969;-40
2022/09/10 03:41:15;;;;;;;;;;;;;;;23.82;nan;101197.94;5053403;28;1209;-42
2022/09/10 03:43:41;;;;;;;;;;;;;;;23.85;nan;101186.22;5052917;28;1968;-41
2022/09/10 03:46:10;;;;;;;;;;;;;;;23.81;nan;101200.69;5053455;28;1225;-41
2022/09/10 03:48:38;;;;;;;;;;;;;;;23.85;nan;101199.53;5052898;28;1814;-42
2022/09/10 03:51:05;;;;;;;;;;;;;;;23.86;nan;101204.72;5053835;28;1185;-41
2022/09/10 03:53:32;;;;;;;;;;;;;;;23.82;nan;101202.41;5054104;28;1482;-40
2022/09/10 03:55:58;;;;;;;;;;;;;;;23.92;nan;101192.81;5053728;28;1304;-39
2022/09/10 03:58:25;;;;;;;;;;;;;;;23.90;nan;101192.91;5085733;28;867;-39
2022/09/10 04:00:52;;;;;;;;;;;;;;;23.99;nan;101194.06;5053407;28;1279;-39
2022/09/10 04:03:19;;;;;;;;;;;;;;;23.96;nan;101194.28;5053357;28;1910;-39
2022/09/10 04:05:45;;;;;;;;;;;;;;;23.87;nan;101190.47;5053708;28;1268;-39
2022/09/10 04:08:12;;;;;;;;;;;;;;;23.85;nan;101188.88;5053771;28;910;-39
2022/09/10 04:10:40;;;;;;;;;;;;;;;23.76;nan;101184.22;5053459;28;1229;-38
2022/09/10 04:13:08;;;;;;;;;;;;;;;23.81;nan;101184.72;5053548;28;686;-39
2022/09/10 04:15:34;;;;;;;;;;;;;;;23.76;nan;101192.19;5053229;28;1310;-39
2022/09/10 04:18:01;;;;;;;;;;;;;;;23.82;nan;101195.28;5053313;28;1252;-39
2022/09/10 04:20:28;;;;;;;;;;;;;;;23.80;nan;101191.03;5053180;28;1220;-39
2022/09/10 04:22:59;;;;;;;;;;;;;;;23.78;nan;101191.13;5053191;28;746;-38
2022/09/10 04:25:26;;;;;;;;;;;;;;;23.84;nan;101185.38;5085322;28;1902;-37
2022/09/10 04:27:53;;;;;;;;;;;;;;;23.72;nan;101191.56;5053093;28;1303;-38
2022/09/10 04:30:20;;;;;;;;;;;;;;;23.69;nan;101193.56;5085286;28;1284;-39
2022/09/10 04:32:46;;;;;;;;;;;;;;;23.71;nan;101191.69;5053020;28;765;-37
2022/09/10 04:35:14;;;;;;;;;;;;;;;23.72;nan;101196.03;5052461;28;1353;-37
2022/09/10 04:37:41;;;;;;;;;;;;;;;23.75;nan;101194.00;5052210;28;723;-37
2022/09/10 04:40:09;;;;;;;;;;;;;;;23.72;nan;101190.69;5052844;28;1377;-38
2022/09/10 04:42:36;;;;;;;;;;;;;;;23.71;nan;101194.34;5052906;28;1722;-38
2022/09/10 04:45:03;;;;;;;;;;;;;;;23.70;nan;101188.16;5052816;28;1983;-37
2022/09/10 04:47:30;;;;;;;;;;;;;;;23.74;nan;101183.50;5053313;28;1411;-36
2022/09/10 04:49:57;;;;;;;;;;;;;;;23.82;nan;101181.97;5085199;28;1233;-38
2022/09/10 04:52:24;;;;;;;;;;;;;;;23.80;nan;101189.19;5053454;28;1177;-38
2022/09/10 04:54:50;;;;;;;;;;;;;;;23.81;nan;101184.72;5053025;28;1169;-37
2022/09/10 04:57:17;;;;;;;;;;;;;;;23.93;nan;101189.16;5053361;28;1155;-37
2022/09/10 04:59:44;;;;;;;;;;;;;;;24.01;nan;101181.50;5054937;28;1320;-37
2022/09/10 05:02:11;;;;;;;;;;;;;;;23.95;nan;101190.75;5057002;28;1055;-37
2022/09/10 05:04:38;;;;;;;;;;;;;;;23.95;nan;101201.41;5056637;28;1975;-37
2022/09/10 05:07:05;;;;;;;;;;;;;;;23.87;nan;101195.78;5056748;28;1101;-37
2022/09/10 05:09:32;;;;;;;;;;;;;;;23.91;nan;101193.75;5056725;28;1213;-37
2022/09/10 05:12:02;;;;;;;;;;;;;;;23.92;nan;101193.63;5056597;28;1402;-36
2022/09/10 05:14:29;;;;;;;;;;;;;;;23.93;nan;101194.50;5056384;28;1311;-37
2022/09/10 05:16:56;;;;;;;;;;;;;;;23.89;nan;101198.34;5056655;28;1145;-37
2022/09/10 05:19:22;;;;;;;;;;;;;;;23.89;nan;101193.03;5056523;28;1328;-36
2022/09/10 05:21:49;;;;;;;;;;;;;;;23.83;nan;101199.63;5056507;28;1265;-36
2022/09/10 05:24:16;;;;;;;;;;;;;;;23.98;nan;101194.19;5056204;28;1973;-37
2022/09/10 05:26:43;;;;;;;;;;;;;;;23.90;nan;101208.00;5056400;28;1127;-37
2022/09/10 05:29:10;;;;;;;;;;;;;;;23.88;nan;101207.28;5056371;28;1213;-37
2022/09/10 05:31:37;;;;;;;;;;;;;;;23.84;nan;101208.44;5056273;28;1102;-37
2022/09/10 05:34:03;;;;;;;;;;;;;;;23.96;nan;101215.56;5056261;28;1221;-37
2022/09/10 05:36:33;;;;;;;;;;;;;;;24.04;nan;101215.88;5056316;28;1036;-37
2022/09/10 05:39:02;;;;;;;;;;;;;;;24.05;nan;101220.22;5055785;28;1216;-37
2022/09/10 05:41:29;;;;;;;;;;;;;;;23.99;nan;101211.81;5055938;28;1024;-37
2022/09/10 05:43:56;;;;;;;;;;;;;;;24.03;nan;101222.16;5055860;28;1906;-37
2022/09/10 05:46:23;;;;;;;;;;;;;;;24.00;nan;101222.38;5056024;28;1284;-37
2022/09/10 05:48:52;;;;;;;;;;;;;;;23.91;nan;101228.34;5055594;28;1369;-38
2022/09/10 05:51:19;;;;;;;;;;;;;;;24.18;nan;101230.88;5055790;28;1264;-37
2022/09/10 05:53:46;;;;;;;;;;;;;;;24.23;nan;101226.91;5055172;28;883;-37
2022/09/10 05:56:13;;;;;;;;;;;;;;;24.35;nan;101233.16;5055326;28;1486;-38
2022/09/10 05:58:40;;;;;;;;;;;;;;;24.38;nan;101233.78;5055532;28;717;-37
2022/09/10 06:01:06;;;;;;;;;;;;;;;24.28;nan;101229.25;5055548;28;1213;-37
2022/09/10 06:03:33;;;;;;;;;;;;;;;24.22;nan;101235.03;5087488;28;823;-36
2022/09/10 06:06:00;;;;;;;;;;;;;;;24.55;nan;101229.03;5055448;28;1977;-37
2022/09/10 06:08:27;;;;;;;;;;;;;;;24.52;nan;101230.13;5055641;28;941;-37
2022/09/10 06:10:59;;;;;;;;;;;;;;;24.53;nan;101228.31;5054610;28;1209;-37
2022/09/10 06:13:26;;;;;;;;;;;;;;;24.57;nan;101233.28;5055614;28;882;-37
2022/09/10 06:15:53;;;;;;;;;;;;;;;24.41;nan;101233.56;5055317;28;1284;-37
2022/09/10 06:18:19;;;;;;;;;;;;;;;24.35;nan;101239.34;5055271;28;1251;-38
2022/09/10 06:20:47;;;;;;;;;;;;;;;24.35;nan;101239.34;5055438;28;1551;-37
2022/09/10 06:23:17;;;;;;;;;;;;;;;24.29;nan;101249.56;5055504;28;808;-37
2022/09/10 06:25:43;;;;;;;;;;;;;;;24.53;nan;101241.63;5055063;28;1969;-38
2022/09/10 06:28:11;;;;;;;;;;;;;;;24.67;nan;101244.13;5054991;28;813;-38
2022/09/10 06:30:38;;;;;;;;;;;;;;;24.65;nan;101246.06;5055053;28;1288;-38
2022/09/10 06:33:05;;;;;;;;;;;;;;;24.61;nan;101245.44;5055391;28;906;-38
2022/09/10 06:35:32;;;;;;;;;;;;;;;24.57;nan;101243.09;5055032;28;1322;-38
2022/09/10 06:37:58;;;;;;;;;;;;;;;24.50;nan;101247.19;5054604;28;757;-38
2022/09/10 06:40:26;;;;;;;;;;;;;;;24.41;nan;101259.31;5054593;28;1598;-38
2022/09/10 06:42:53;;;;;;;;;;;;;;;24.45;nan;101260.81;5053845;28;779;-38
2022/09/10 06:45:20;;;;;;;;;;;;;;;24.67;nan;101257.44;5086794;28;1985;-38
2022/09/10 06:47:47;;;;;;;;;;;;;;;24.72;nan;101263.25;5054795;28;1089;-38
2022/09/10 06:50:34;;;;;;;;;;;;;;;24.69;nan;101255.50;5054680;28;1966;-38
2022/09/10 06:53:00;;;;;;;;;;;;;;;24.77;nan;101261.13;5054553;28;753;-38
2022/09/10 06:55:27;;;;;;;;;;;;;;;24.64;nan;101257.66;5054326;28;1315;-38
2022/09/10 06:57:54;;;;;;;;;;;;;;;24.66;nan;101258.38;5054685;28;894;-37
2022/09/10 07:00:21;;;;;;;;;;;;;;;24.70;nan;101266.06;5054426;28;1283;-38
2022/09/10 07:02:49;;;;;;;;;;;;;;;24.74;nan;101266.69;5054550;28;906;-37
2022/09/10 07:05:16;;;;;;;;;;;;;;;24.70;nan;101266.06;5085908;28;1983;-37
2022/09/10 07:07:42;;;;;;;;;;;;;;;24.70;nan;101267.88;5054439;28;1256;-37
2022/09/10 07:10:09;;;;;;;;;;;;;;;24.90;nan;101269.91;5054331;28;1229;-37
2022/09/10 07:12:36;;;;;;;;;;;;;;;24.86;nan;101271.13;5053900;28;1184;-36
2022/09/10 07:15:03;;;;;;;;;;;;;;;24.96;nan;101274.78;5054115;28;1334;-37
2022/09/10 07:17:29;;;;;;;;;;;;;;;24.85;nan;101269.44;5054113;28;1098;-36
2022/09/10 07:19:57;;;;;;;;;;;;;;;24.80;nan;101269.75;5054333;28;1271;-39
2022/09/10 07:22:24;;;;;;;;;;;;;;;24.83;nan;101276.69;5054460;28;1160;-37
2022/09/10 07:24:51;;;;;;;;;;;;;;;24.84;nan;101273.03;5053848;28;1913;-37
2022/09/10 07:27:17;;;;;;;;;;;;;;;24.91;nan;101263.63;5054166;28;1163;-41
2022/09/10 07:29:44;;;;;;;;;;;;;;;24.99;nan;101266.56;5054007;28;1201;-37
2022/09/10 07:32:11;;;;;;;;;;;;;;;25.05;nan;101263.44;5054060;28;934;-37
2022/09/10 07:34:39;;;;;;;;;;;;;;;25.16;nan;101279.50;5053849;28;1201;-40
2022/09/10 07:37:06;;;;;;;;;;;;;;;25.23;nan;101277.22;5086183;28;1162;-36
2022/09/10 07:39:33;;;;;;;;;;;;;;;25.19;nan;101278.41;5053223;28;1204;-37
2022/09/10 07:41:59;;;;;;;;;;;;;;;25.12;nan;101272.69;5053566;28;1116;-36
2022/09/10 07:44:26;;;;;;;;;;;;;;;25.13;nan;101284.19;5053556;28;1914;-38
2022/09/10 07:46:53;;;;;;;;;;;;;;;25.26;nan;101280.47;5049256;28;1550;-37
2022/09/10 07:49:20;;;;;;;;;;;;;;;25.41;nan;101279.31;5047354;28;1296;-38
2022/09/10 07:51:53;;;;;;;;;;;;;;;25.48;nan;101291.25;5053389;28;1183;-37
2022/09/10 07:54:27;;;;;;;;;;;;;;;25.38;nan;101282.19;5046202;28;1635;-36
2022/09/10 07:56:54;;;;;;;;;;;;;;;25.46;nan;101284.31;5040355;28;1078;-35
2022/09/10 07:59:21;;;;;;;;;;;;;;;25.53;nan;101282.91;5052447;28;1577;-36
2022/09/10 08:01:48;;;;;;;;;;;;;;;25.56;nan;101293.34;5050765;28;1316;-36
2022/09/10 08:04:15;;;;;;;;;;;;;;;25.50;nan;101289.28;5052012;28;1902;-37
2022/09/10 08:06:42;;;;;;;;;;;;;;;25.59;nan;101293.09;5051490;28;1054;-38
2022/09/10 08:09:10;;;;;;;;;;;;;;;25.61;nan;101291.16;5052253;28;1224;-36
2022/09/10 08:11:38;;;;;;;;;;;;;;;25.57;nan;101288.81;5051950;28;1041;-37
2022/09/10 08:14:05;;;;;;;;;;;;;;;25.66;nan;101299.63;5045087;28;1514;-35
2022/09/10 08:16:35;;;;;;;;;;;;;;;25.72;nan;101293.81;5032294;28;1169;-35
2022/09/10 08:19:01;;;;;;;;;;;;;;;25.72;nan;101298.31;5051303;28;1217;-37
2022/09/10 08:21:31;;;;;;;;;;;;;;;25.69;nan;101299.41;5051485;28;1031;-36
2022/09/10 08:23:58;;;;;;;;;;;;;;;25.67;nan;101300.50;5051417;28;860;-37
2022/09/10 08:26:26;;;;;;;;;;;;;;;25.65;nan;101302.44;5066755;28;1914;-37
2022/09/10 08:28:57;;;;;;;;;;;;;;;25.84;nan;101302.72;5031325;28;856;-36
2022/09/10 08:31:25;;;;;;;;;;;;;;;25.84;nan;101306.22;5031498;28;1257;-36
2022/09/10 08:33:53;;;;;;;;;;;;;;;25.93;nan;101294.00;5032446;28;977;-38
2022/09/10 08:36:23;;;;;;;;;;;;;;;25.98;nan;101291.81;5035215;28;1206;-36
2022/09/10 08:38:50;;;;;;;;;;;;;;;25.98;nan;101294.47;5054778;28;1032;-36
2022/09/10 08:41:17;;;;;;;;;;;;;;;25.98;nan;101299.81;5054743;28;1197;-36
2022/09/10 08:44:11;;;;;;;;;;;;;;;26.04;nan;101302.84;5053864;28;1317;-36
2022/09/10 08:46:44;;;;;;;;;;;;;;;25.99;nan;101290.84;5053467;28;1954;-37
2022/09/10 08:49:11;;;;;;;;;;;;;;;26.02;nan;101299.44;5054905;28;1308;-36
2022/09/10 08:51:44;;;;;;;;;;;;;;;26.08;nan;101296.28;5053451;28;1061;-36
2022/09/10 08:54:15;;;;;;;;;;;;;;;26.07;nan;101294.59;5048233;28;1557;-37
2022/09/10 08:56:43;;;;;;;;;;;;;;;26.11;nan;101294.34;5043181;28;1122;-36
2022/09/10 08:59:20;;;;;;;;;;;;;;;26.02;nan;101296.75;5054456;28;1241;-38
2022/09/10 09:01:53;;;;;;;;;;;;;;;25.98;nan;101311.34;5054786;28;1128;-36
2022/09/10 09:04:39;;;;;;;;;;;;;;;25.98;nan;101303.34;5069759;28;1288;-36
2022/09/10 09:07:18;;;;;;;;;;;;;;;26.03;nan;101302.94;5052820;28;1056;-35
2022/09/10 09:09:52;;;;;;;;;;;;;;;26.03;nan;101302.94;5069874;28;1252;-37
2022/09/10 09:12:34;;;;;;;;;;;;;;;26.10;nan;101296.16;5053909;28;1179;-36
2022/09/10 09:15:10;;;;;;;;;;;;;;;26.16;nan;101302.88;5054027;28;1245;-35
2022/09/10 09:17:43;;;;;;;;;;;;;;;26.16;nan;101303.72;5054588;28;1083;-36
2022/09/10 09:20:35;;;;;;;;;;;;;;;26.17;nan;101305.44;5054276;28;1316;-36
2022/09/10 09:23:13;;;;;;;;;;;;;;;26.16;nan;101316.22;5054104;28;1467;-38
2022/09/10 09:25:50;;;;;;;;;;;;;;;26.13;nan;101314.63;5054311;28;1899;-38
2022/09/10 09:28:22;;;;;;;;;;;;;;;26.13;nan;101309.28;5053954;28;1059;-37
2022/09/10 09:30:51;;;;;;;;;;;;;;;26.13;nan;101316.44;5052897;28;1308;-38
2022/09/10 09:33:23;;;;;;;;;;;;;;;26.16;nan;101317.06;5051734;28;1012;-38
2022/09/10 09:36:01;;;;;;;;;;;;;;;26.21;nan;101317.53;5051947;28;1342;-38
2022/09/10 09:38:33;;;;;;;;;;;;;;;26.14;nan;101321.66;5051777;28;1074;-37
2022/09/10 09:41:06;;;;;;;;;;;;;;;26.04;nan;101315.34;5051670;28;1303;-38
2022/09/10 09:43:51;;;;;;;;;;;;;;;26.10;nan;101312.19;5051998;28;1031;-38
2022/09/10 09:46:20;;;;;;;;;;;;;;;26.13;nan;101306.59;5052010;28;1979;-37
2022/09/10 09:48:47;;;;;;;;;;;;;;;26.13;nan;101306.59;5053624;28;1765;-36
2022/09/10 09:51:19;;;;;;;;;;;;;;;26.16;nan;101303.72;5053774;28;1279;-37
2022/09/10 09:53:52;;;;;;;;;;;;;;;26.11;nan;101305.88;5053519;28;1004;-37
2022/09/10 09:56:45;;;;;;;;;;;;;;;26.10;nan;101304.19;5053734;28;2099;-38
2022/09/10 09:59:26;;;;;;;;;;;;;;;26.06;nan;101305.38;5053714;28;1344;-36
2022/09/10 10:02:25;;;;;;;;;;;;;;;26.16;nan;101317.06;5053429;28;1177;-37
2022/09/10 10:04:58;;;;;;;;;;;;;;;26.23;nan;101312.97;5051709;28;1969;-36
2022/09/10 10:07:32;;;;;;;;;;;;;;;26.26;nan;101304.69;5053425;28;1254;-36
2022/09/10 10:10:06;;;;;;;;;;;;;;;26.23;nan;101304.94;5053397;28;1383;-36
2022/09/10 10:12:40;;;;;;;;;;;;;;;26.21;nan;101298.00;5053516;28;1141;-37
2022/09/10 10:15:26;;;;;;;;;;;;;;;26.27;nan;101301.03;5052559;28;1371;-38
2022/09/10 10:17:56;;;;;;;;;;;;;;;26.24;nan;101301.28;5052812;28;1433;-37
2022/09/10 10:20:40;;;;;;;;;;;;;;;26.21;nan;101303.34;5053392;28;1296;-37
2022/09/10 10:23:26;;;;;;;;;;;;;;;26.33;nan;101299.69;5068586;28;999;-37
2022/09/10 10:25:59;;;;;;;;;;;;;;;26.24;nan;101295.94;5052969;28;1985;-35
2022/09/10 10:28:26;;;;;;;;;;;;;;;26.25;nan;101286.97;5052575;28;1063;-37
2022/09/10 10:30:57;;;;;;;;;;;;;;;26.30;nan;101294.59;5053096;28;1299;-36
2022/09/10 10:33:32;;;;;;;;;;;;;;;26.32;nan;101292.66;5052469;28;1082;-37
2022/09/10 10:36:09;;;;;;;;;;;;;;;26.32;nan;101287.31;5052979;28;1375;-36
2022/09/10 10:38:39;;;;;;;;;;;;;;;26.33;nan;101279.19;5052724;28;1050;-38
2022/09/10 10:41:24;;;;;;;;;;;;;;;26.47;nan;101270.91;5051738;28;1404;-37
2022/09/10 10:44:09;;;;;;;;;;;;;;;26.48;nan;101277.09;5052299;28;1028;-37
2022/09/10 10:47:02;;;;;;;;;;;;;;;26.46;nan;101271.88;5052565;28;1906;-38
2022/09/10 10:49:57;;;;;;;;;;;;;;;26.35;nan;101271.06;5051678;28;1399;-39
2022/09/10 10:52:52;;;;;;;;;;;;;;;26.33;nan;101268.50;5052756;28;1107;-37
2022/09/10 10:55:34;;;;;;;;;;;;;;;26.34;nan;101269.34;5052899;28;1240;-36
2022/09/10 10:58:10;;;;;;;;;;;;;;;26.46;nan;101263.88;5050152;28;1816;-36
2022/09/10 11:00:41;;;;;;;;;;;;;;;26.42;nan;101267.75;5042002;28;1358;-37
2022/09/10 11:03:21;;;;;;;;;;;;;;;26.37;nan;101258.41;5037491;28;957;-38
2022/09/10 11:06:03;;;;;;;;;;;;;;;26.37;nan;101251.25;5045614;28;1987;-35
2022/09/10 11:08:40;;;;;;;;;;;;;;;26.45;nan;101259.50;5034713;28;864;-36
2022/09/10 11:11:15;;;;;;;;;;;;;;;26.37;nan;101248.59;5031945;28;1292;-36
2022/09/10 11:13:58;;;;;;;;;;;;;;;26.49;nan;101252.94;5034411;28;996;-39
2022/09/10 11:16:35;;;;;;;;;;;;;;;26.52;nan;101260.69;5035582;28;1264;-38
2022/09/10 11:19:12;;;;;;;;;;;;;;;26.45;nan;101255.97;5045342;28;1300;-38
2022/09/10 11:21:48;;;;;;;;;;;;;;;26.43;nan;101253.44;5033070;28;978;-39
2022/09/10 11:24:33;;;;;;;;;;;;;;;26.46;nan;101257.66;5032127;28;1264;-42
2022/09/10 11:27:09;;;;;;;;;;;;;;;26.46;nan;101246.97;5032359;28;1983;-39
2022/09/10 11:29:57;;;;;;;;;;;;;;;26.52;nan;101242.00;5046073;28;1268;-38
2022/09/10 11:32:43;;;;;;;;;;;;;;;26.71;nan;101240.47;5049674;28;1129;-38
2022/09/10 11:35:38;;;;;;;;;;;;;;;26.63;nan;101234.94;5032118;28;1319;-38
2022/09/10 11:38:07;;;;;;;;;;;;;;;26.57;nan;101241.59;5038807;28;876;-37
2022/09/10 11:40:42;;;;;;;;;;;;;;;26.63;nan;101237.59;5032119;28;1335;-37
2022/09/10 11:43:14;;;;;;;;;;;;;;;26.68;nan;101230.03;5036844;28;883;-37
2022/09/10 11:45:53;;;;;;;;;;;;;;;26.66;nan;101235.50;5031782;28;1992;-37
2022/09/10 11:48:39;;;;;;;;;;;;;;;26.64;nan;101232.13;5036738;28;1301;-38
2022/09/10 11:51:32;;;;;;;;;;;;;;;26.68;nan;101224.69;5031884;28;1411;-37
2022/09/10 11:54:01;;;;;;;;;;;;;;;26.73;nan;101220.66;5031787;28;724;-37
2022/09/10 11:56:33;;;;;;;;;;;;;;;26.72;nan;101220.81;5047602;28;1059;-38
2022/09/10 11:59:01;;;;;;;;;;;;;;;26.73;nan;101215.31;5034705;28;1425;-36
2022/09/10 12:01:42;;;;;;;;;;;;;;;26.79;nan;101212.13;5051204;28;1200;-38
2022/09/10 12:04:27;;;;;;;;;;;;;;;26.74;nan;101214.34;5031936;28;1217;-39
2022/09/10 12:07:00;;;;;;;;;;;;;;;26.70;nan;101206.69;5072649;28;1989;-36
2022/09/10 12:09:27;;;;;;;;;;;;;;;26.81;nan;101201.34;5031642;28;1265;-36
2022/09/10 12:12:06;;;;;;;;;;;;;;;26.93;nan;101197.66;5037675;28;974;-36
2022/09/10 12:14:37;;;;;;;;;;;;;;;26.93;nan;101195.81;5032406;28;1272;-35
2022/09/10 12:17:22;;;;;;;;;;;;;;;26.96;nan;101198.22;5032741;28;1127;-35
2022/09/10 12:19:51;;;;;;;;;;;;;;;26.88;nan;101195.34;5038989;28;1399;-37
2022/09/10 12:22:19;;;;;;;;;;;;;;;26.93;nan;101187.78;5032562;28;1033;-38
2022/09/10 12:24:55;;;;;;;;;;;;;;;26.92;nan;101180.75;5032269;28;1256;-38
2022/09/10 12:27:42;;;;;;;;;;;;;;;26.86;nan;101188.44;5045330;28;1915;-38
2022/09/10 12:30:34;;;;;;;;;;;;;;;26.94;nan;101189.50;5043166;28;1395;-37
2022/09/10 12:33:23;;;;;;;;;;;;;;;26.93;nan;101176.28;5046578;28;1220;-37
2022/09/10 12:35:51;;;;;;;;;;;;;;;26.93;nan;101178.94;5039606;28;1303;-37
2022/09/10 12:38:36;;;;;;;;;;;;;;;26.97;nan;101175.88;5036764;28;968;-38
2022/09/10 12:41:07;;;;;;;;;;;;;;;26.94;nan;101175.28;5031390;28;1288;-42
2022/09/10 12:43:37;;;;;;;;;;;;;;;26.90;nan;101177.34;5035776;28;933;-36
2022/09/10 12:46:04;;;;;;;;;;;;;;;26.96;nan;101176.84;5030974;28;1918;-36
2022/09/10 12:48:40;;;;;;;;;;;;;;;26.93;nan;101163.72;5034931;28;1152;-35
2022/09/10 12:51:16;;;;;;;;;;;;;;;26.91;nan;101157.66;5031447;28;1300;-36
2022/09/10 12:53:49;;;;;;;;;;;;;;;26.96;nan;101160.78;5037060;28;1347;-34
2022/09/10 12:56:31;;;;;;;;;;;;;;;26.90;nan;101152.47;5031207;28;1257;-35
2022/09/10 12:59:09;;;;;;;;;;;;;;;26.92;nan;101153.19;5032945;28;1305;-35
2022/09/10 13:01:45;;;;;;;;;;;;;;;26.90;nan;101147.13;5050317;28;1116;-35
2022/09/10 13:04:35;;;;;;;;;;;;;;;26.88;nan;101141.03;5037610;28;1369;-35
2022/09/10 13:07:04;;;;;;;;;;;;;;;27.11;nan;101139.94;5046129;28;1938;-35
2022/09/10 13:09:34;;;;;;;;;;;;;;;27.14;nan;101131.66;5031003;28;1296;-37
2022/09/10 13:12:04;;;;;;;;;;;;;;;27.04;nan;101123.56;5032349;28;1097;-37
2022/09/10 13:14:44;;;;;;;;;;;;;;;26.99;nan;101128.44;5030925;28;1277;-37
2022/09/10 13:17:29;;;;;;;;;;;;;;;27.15;nan;101117.28;5031633;28;1121;-35
2022/09/10 13:20:11;;;;;;;;;;;;;;;27.20;nan;101115.06;5046087;28;1339;-35
2022/09/10 13:22:56;;;;;;;;;;;;;;;27.23;nan;101109.47;5050717;28;975;-35
2022/09/10 13:25:25;;;;;;;;;;;;;;;27.31;nan;101108.78;5034225;28;1382;-35
2022/09/10 13:27:52;;;;;;;;;;;;;;;27.25;nan;101107.50;5039844;28;1910;-34
2022/09/10 13:30:20;;;;;;;;;;;;;;;27.14;nan;101107.59;5046133;28;1594;-35
2022/09/10 13:32:51;;;;;;;;;;;;;;;27.19;nan;101101.81;5052720;28;984;-34